Time;durP1;ratioP1;P1;durP2;ratioP2;P2;SDS_P1;SDS_P2;PMS_P1;PMS_P2;Temp;Humidity;BMP_temperature;BMP_pressure;BME280_temperature;BME280_humidity;BME280_pressure;Samples;Min_cycle;Max_cycle;Signal;HPM_P1;HPM_P2
2021/06/01 00:01:39;;;;;;;1.23;0.80;;;;;;;;;;5004809;28;20046;-67
2021/06/01 00:04:05;;;;;;;2.10;0.80;;;;;;;;;;5006861;28;20041;-67
2021/06/01 00:06:30;;;;;;;0.75;0.73;;;;;;;;;;5006719;28;20090;-67
2021/06/01 00:08:56;;;;;;;2.47;0.90;;;;;;;;;;4992881;28;20538;-67
2021/06/01 00:11:22;;;;;;;1.17;0.85;;;;;;;;;;5004458;28;20113;-67
2021/06/01 00:13:47;;;;;;;1.48;1.00;;;;;;;;;;4992596;28;20049;-67
2021/06/01 00:16:13;;;;;;;2.20;0.95;;;;;;;;;;5007623;28;20541;-67
2021/06/01 00:18:39;;;;;;;1.08;0.75;;;;;;;;;;5008094;28;20030;-67
2021/06/01 00:21:07;;;;;;;1.75;0.77;;;;;;;;;;5004581;28;20042;-67
2021/06/01 00:23:36;;;;;;;0.77;0.70;;;;;;;;;;5006682;28;20075;-67
2021/06/01 00:26:02;;;;;;;1.25;0.77;;;;;;;;;;4981301;28;20462;-67
2021/06/01 00:28:27;;;;;;;1.02;0.93;;;;;;;;;;5006331;28;20054;-67
2021/06/01 00:30:53;;;;;;;1.73;1.00;;;;;;;;;;5003904;28;22208;-67
2021/06/01 00:33:18;;;;;;;0.98;0.90;;;;;;;;;;4988813;28;21036;-67
2021/06/01 00:35:44;;;;;;;1.52;1.00;;;;;;;;;;4989029;28;20104;-67
2021/06/01 00:38:09;;;;;;;1.52;0.85;;;;;;;;;;5008263;28;20034;-67
2021/06/01 00:40:35;;;;;;;0.75;0.70;;;;;;;;;;5006750;28;20554;-67
2021/06/01 00:43:00;;;;;;;1.67;1.20;;;;;;;;;;5009367;28;20085;-67
2021/06/01 00:45:27;;;;;;;1.05;0.82;;;;;;;;;;5007354;28;20036;-67
2021/06/01 00:47:53;;;;;;;1.00;0.80;;;;;;;;;;4991325;28;20034;-67
2021/06/01 00:50:23;;;;;;;2.97;1.00;;;;;;;;;;4989919;28;20696;-67
2021/06/01 00:52:48;;;;;;;1.70;1.00;;;;;;;;;;5006894;28;20089;-67
2021/06/01 00:55:14;;;;;;;1.33;0.90;;;;;;;;;;4990943;28;20089;-67
2021/06/01 00:57:39;;;;;;;1.30;1.00;;;;;;;;;;5006511;28;20046;-67
2021/06/01 01:00:06;;;;;;;1.05;0.95;;;;;;;;;;5006816;28;20485;-67
2021/06/01 01:02:31;;;;;;;3.45;1.00;;;;;;;;;;5007165;28;21175;-67
2021/06/01 01:04:57;;;;;;;1.45;0.90;;;;;;;;;;5006020;28;20031;-66
2021/06/01 01:07:38;;;;;;;1.15;0.85;;;;;;;;;;4975461;28;20050;-67
2021/06/01 01:10:06;;;;;;;1.30;0.80;;;;;;;;;;4992995;28;20487;-67
2021/06/01 01:12:37;;;;;;;0.73;0.73;;;;;;;;;;5006726;28;20088;-67
2021/06/01 01:15:04;;;;;;;1.33;0.83;;;;;;;;;;5004591;28;20034;-66
2021/06/01 01:17:43;;;;;;;1.02;0.77;;;;;;;;;;5004781;28;20038;-67
2021/06/01 01:20:36;;;;;;;1.67;1.02;;;;;;;;;;4978798;28;20035;-67
2021/06/01 01:23:04;;;;;;;1.52;1.00;;;;;;;;;;5005126;28;20082;-67
2021/06/01 01:25:48;;;;;;;0.90;0.77;;;;;;;;;;4989314;28;20944;-66
2021/06/01 01:28:40;;;;;;;0.75;0.75;;;;;;;;;;5006760;28;20030;-67
2021/06/01 01:31:11;;;;;;;1.00;0.90;;;;;;;;;;4991502;28;20494;-67
2021/06/01 01:33:38;;;;;;;1.85;0.90;;;;;;;;;;4989889;28;20042;-67
2021/06/01 01:36:05;;;;;;;1.20;0.88;;;;;;;;;;4991471;28;20450;-67
2021/06/01 01:38:30;;;;;;;1.52;0.70;;;;;;;;;;4991096;28;20486;-67
2021/06/01 01:41:03;;;;;;;1.60;0.88;;;;;;;;;;4989260;28;20092;-67
2021/06/01 01:43:31;;;;;;;0.85;0.85;;;;;;;;;;4987685;28;20145;-67
2021/06/01 01:46:12;;;;;;;1.00;0.90;;;;;;;;;;4994115;28;20038;-67
2021/06/01 01:51:22;;;;;;;1.70;1.10;;;;;;;;;;5002962;28;20042;-66
2021/06/01 01:53:52;;;;;;;1.42;0.90;;;;;;;;;;4989540;28;20038;-67
2021/06/01 01:56:20;;;;;;;1.33;0.90;;;;;;;;;;4990774;28;20044;-67
2021/06/01 01:58:47;;;;;;;1.20;0.88;;;;;;;;;;4989921;28;20042;-67
2021/06/01 02:01:13;;;;;;;1.40;0.93;;;;;;;;;;4990353;28;20058;-67
2021/06/01 02:03:39;;;;;;;1.08;0.90;;;;;;;;;;5005999;28;20085;-67
2021/06/01 02:06:04;;;;;;;1.45;0.80;;;;;;;;;;5006129;28;20496;-67
2021/06/01 02:08:30;;;;;;;1.45;0.90;;;;;;;;;;5006259;28;20031;-67
2021/06/01 02:10:55;;;;;;;2.58;1.20;;;;;;;;;;4988642;28;21025;-67
2021/06/01 02:13:21;;;;;;;1.50;1.05;;;;;;;;;;5003527;28;20034;-67
2021/06/01 02:15:46;;;;;;;0.77;0.77;;;;;;;;;;4990437;28;20034;-67
2021/06/01 02:18:12;;;;;;;1.55;1.10;;;;;;;;;;5004442;28;20869;-67
2021/06/01 02:20:37;;;;;;;1.67;1.13;;;;;;;;;;5007137;28;20038;-67
2021/06/01 02:25:58;;;;;;;1.00;0.85;;;;;;;;;;4989796;28;20104;-67
2021/06/01 02:28:28;;;;;;;0.77;0.70;;;;;;;;;;4975667;28;20038;-67
2021/06/01 02:31:14;;;;;;;2.75;1.10;;;;;;;;;;5002998;28;20141;-67
2021/06/01 02:33:42;;;;;;;1.77;1.20;;;;;;;;;;4988185;28;20085;-67
2021/06/01 02:36:07;;;;;;;2.92;1.30;;;;;;;;;;4988157;28;20042;-67
2021/06/01 02:38:33;;;;;;;1.45;0.85;;;;;;;;;;4987853;28;20045;-67
2021/06/01 02:41:00;;;;;;;1.17;0.90;;;;;;;;;;5003692;28;20104;-67
2021/06/01 02:43:25;;;;;;;1.13;0.93;;;;;;;;;;4988375;28;20088;-67
2021/06/01 02:45:51;;;;;;;0.85;0.70;;;;;;;;;;4986480;28;20090;-67
2021/06/01 02:48:18;;;;;;;1.33;1.00;;;;;;;;;;4986725;28;20672;-67
2021/06/01 02:50:44;;;;;;;2.10;1.30;;;;;;;;;;4987972;28;20022;-67
2021/06/01 02:53:11;;;;;;;0.90;0.90;;;;;;;;;;4988983;28;20491;-67
2021/06/01 02:55:37;;;;;;;1.58;1.10;;;;;;;;;;4989998;28;20042;-67
2021/06/01 02:58:05;;;;;;;1.17;1.08;;;;;;;;;;4986467;28;20121;-67
2021/06/01 03:00:30;;;;;;;1.92;1.00;;;;;;;;;;4990106;28;20570;-67
2021/06/01 03:02:56;;;;;;;1.20;1.00;;;;;;;;;;5004991;28;20045;-67
2021/06/01 03:05:25;;;;;;;1.45;1.00;;;;;;;;;;5005241;28;20080;-67
2021/06/01 03:07:52;;;;;;;1.17;1.05;;;;;;;;;;4986499;28;20042;-67
2021/06/01 03:10:18;;;;;;;1.50;1.13;;;;;;;;;;5004664;28;20065;-67
2021/06/01 03:13:00;;;;;;;1.27;1.10;;;;;;;;;;4990014;28;20034;-67
2021/06/01 03:15:26;;;;;;;1.38;0.90;;;;;;;;;;4991122;28;20065;-67
2021/06/01 03:17:51;;;;;;;1.35;1.00;;;;;;;;;;5003343;28;20054;-67
2021/06/01 03:20:17;;;;;;;1.48;1.17;;;;;;;;;;5002820;28;20042;-67
2021/06/01 03:22:43;;;;;;;1.40;1.10;;;;;;;;;;5002957;28;20126;-67
2021/06/01 03:25:09;;;;;;;1.60;1.10;;;;;;;;;;4987480;28;20019;-67
2021/06/01 03:27:34;;;;;;;1.27;0.90;;;;;;;;;;5003991;28;20042;-67
2021/06/01 03:30:00;;;;;;;1.13;0.90;;;;;;;;;;5004191;28;20030;-67
2021/06/01 03:32:25;;;;;;;1.58;1.20;;;;;;;;;;5004236;28;20030;-67
2021/06/01 03:34:51;;;;;;;1.42;1.00;;;;;;;;;;5002908;28;20403;-67
2021/06/01 03:37:16;;;;;;;1.10;1.00;;;;;;;;;;5002588;28;20104;-67
2021/06/01 03:39:42;;;;;;;1.23;1.00;;;;;;;;;;5002207;28;20403;-67
2021/06/01 03:42:11;;;;;;;1.23;1.00;;;;;;;;;;5005396;28;20042;-67
2021/06/01 03:44:41;;;;;;;1.08;0.93;;;;;;;;;;4998511;28;20031;-67
2021/06/01 03:47:06;;;;;;;1.15;0.85;;;;;;;;;;4985978;28;20076;-67
2021/06/01 03:49:33;;;;;;;1.38;1.00;;;;;;;;;;5002936;28;20032;-67
2021/06/01 03:51:58;;;;;;;1.48;0.90;;;;;;;;;;5004110;28;20128;-67
2021/06/01 03:54:24;;;;;;;1.38;1.10;;;;;;;;;;5002954;28;20039;-67
2021/06/01 03:56:49;;;;;;;1.30;0.88;;;;;;;;;;5004825;28;20038;-67
2021/06/01 03:59:15;;;;;;;1.92;1.23;;;;;;;;;;4986532;28;20030;-67
2021/06/01 04:01:40;;;;;;;1.50;1.00;;;;;;;;;;5003377;28;20072;-67
2021/06/01 04:04:06;;;;;;;1.58;1.00;;;;;;;;;;5004763;28;20041;-67
2021/06/01 04:06:31;;;;;;;1.45;0.98;;;;;;;;;;4986407;28;20443;-67
2021/06/01 04:08:56;;;;;;;1.73;1.17;;;;;;;;;;4988804;28;20034;-67
2021/06/01 04:11:22;;;;;;;1.70;1.10;;;;;;;;;;5005860;28;20037;-67
2021/06/01 04:13:47;;;;;;;1.17;1.08;;;;;;;;;;5008295;28;20030;-67
2021/06/01 04:16:13;;;;;;;3.03;1.20;;;;;;;;;;5006358;28;20032;-67
2021/06/01 04:18:38;;;;;;;1.88;1.27;;;;;;;;;;4990892;28;20034;-67
2021/06/01 04:21:04;;;;;;;2.28;1.20;;;;;;;;;;4987573;28;20037;-67
2021/06/01 04:23:29;;;;;;;1.23;1.00;;;;;;;;;;5004729;28;20038;-67
2021/06/01 04:25:55;;;;;;;1.40;1.05;;;;;;;;;;5006351;28;20414;-67
2021/06/01 04:28:21;;;;;;;2.40;1.10;;;;;;;;;;5006319;28;20050;-67
2021/06/01 04:30:46;;;;;;;1.42;1.20;;;;;;;;;;5006720;28;20041;-67
2021/06/01 04:33:12;;;;;;;1.15;1.05;;;;;;;;;;5008170;28;20104;-67
2021/06/01 04:35:38;;;;;;;1.25;1.13;;;;;;;;;;5006368;28;20038;-67
2021/06/01 04:38:03;;;;;;;1.50;1.10;;;;;;;;;;4989281;28;20042;-66
2021/06/01 04:40:29;;;;;;;1.70;1.35;;;;;;;;;;5006499;28;20050;-67
2021/06/01 04:42:54;;;;;;;2.35;1.20;;;;;;;;;;4989047;28;20046;-67
2021/06/01 04:45:20;;;;;;;1.20;1.10;;;;;;;;;;5004084;28;20038;-67
2021/06/01 04:47:45;;;;;;;2.15;1.10;;;;;;;;;;5005956;28;20036;-67
2021/06/01 04:50:11;;;;;;;1.58;1.35;;;;;;;;;;5006573;28;20044;-67
2021/06/01 04:52:36;;;;;;;1.67;1.20;;;;;;;;;;5007323;28;20034;-67
2021/06/01 04:55:03;;;;;;;2.08;1.45;;;;;;;;;;4989304;28;20030;-67
2021/06/01 04:57:28;;;;;;;2.42;1.35;;;;;;;;;;4989716;28;20038;-67
2021/06/01 04:59:54;;;;;;;2.90;1.40;;;;;;;;;;5006444;28;20704;-67
2021/06/01 05:02:19;;;;;;;2.22;1.50;;;;;;;;;;4989283;28;20038;-67
2021/06/01 05:04:45;;;;;;;2.95;1.55;;;;;;;;;;5007017;28;20030;-67
2021/06/01 05:07:12;;;;;;;2.53;1.60;;;;;;;;;;5007543;28;20060;-67
2021/06/01 05:09:37;;;;;;;2.40;1.60;;;;;;;;;;5007225;28;20499;-68
2021/06/01 05:12:03;;;;;;;2.65;1.60;;;;;;;;;;5007010;28;20034;-67
2021/06/01 05:14:29;;;;;;;2.33;1.42;;;;;;;;;;4988556;28;20030;-67
2021/06/01 05:16:54;;;;;;;1.70;1.50;;;;;;;;;;5004450;28;20034;-67
2021/06/01 05:19:20;;;;;;;1.80;1.50;;;;;;;;;;5005943;28;20041;-67
2021/06/01 05:21:45;;;;;;;1.83;1.30;;;;;;;;;;5005620;28;20043;-67
2021/06/01 05:24:11;;;;;;;2.67;1.60;;;;;;;;;;4989100;28;20044;-67
2021/06/01 05:26:37;;;;;;;1.85;1.35;;;;;;;;;;5005968;28;20049;-67
2021/06/01 05:29:02;;;;;;;2.33;1.67;;;;;;;;;;5006470;28;20045;-67
2021/06/01 05:33:59;;;;;;;1.90;1.52;;;;;;;;;;5004962;28;20029;-67
2021/06/01 05:36:25;;;;;;;2.17;1.67;;;;;;;;;;5007026;28;20104;-67
2021/06/01 05:38:50;;;;;;;4.15;1.50;;;;;;;;;;5005324;28;20277;-67
2021/06/01 05:41:16;;;;;;;2.33;1.58;;;;;;;;;;5002584;28;20491;-67
2021/06/01 05:43:42;;;;;;;2.25;1.45;;;;;;;;;;4988520;28;20030;-67
2021/06/01 05:46:08;;;;;;;2.90;1.55;;;;;;;;;;5005735;28;20041;-67
2021/06/01 05:48:33;;;;;;;1.95;1.50;;;;;;;;;;4987765;28;20046;-67
2021/06/01 05:50:59;;;;;;;2.97;1.92;;;;;;;;;;4989882;28;20038;-67
2021/06/01 05:53:25;;;;;;;2.67;1.63;;;;;;;;;;5005707;28;20026;-67
2021/06/01 05:55:51;;;;;;;2.28;1.50;;;;;;;;;;5004699;28;20050;-67
2021/06/01 05:58:16;;;;;;;2.28;1.60;;;;;;;;;;5006175;28;20032;-67
2021/06/01 06:00:42;;;;;;;4.22;1.55;;;;;;;;;;5004978;28;20442;-67
2021/06/01 06:03:07;;;;;;;3.03;1.73;;;;;;;;;;5005830;28;20145;-67
2021/06/01 06:05:33;;;;;;;1.90;1.35;;;;;;;;;;5003547;28;20053;-67
2021/06/01 06:08:12;;;;;;;3.40;1.83;;;;;;;;;;5006680;28;20027;-67
2021/06/01 06:10:38;;;;;;;2.13;1.40;;;;;;;;;;5005489;28;20034;-68
2021/06/01 06:13:04;;;;;;;3.10;1.60;;;;;;;;;;5006796;28;20030;-67
2021/06/01 06:15:29;;;;;;;1.95;1.45;;;;;;;;;;5006086;28;20506;-67
2021/06/01 06:18:04;;;;;;;1.35;1.23;;;;;;;;;;5003670;28;20718;-67
2021/06/01 06:20:31;;;;;;;1.60;1.40;;;;;;;;;;5005190;28;20105;-67
2021/06/01 06:22:57;;;;;;;1.70;1.35;;;;;;;;;;5006316;28;20038;-66
2021/06/01 06:25:22;;;;;;;1.95;1.52;;;;;;;;;;5005945;28;20042;-67
2021/06/01 06:27:48;;;;;;;1.95;1.30;;;;;;;;;;5006757;28;20061;-67
2021/06/01 06:30:14;;;;;;;2.17;1.48;;;;;;;;;;5004795;28;20042;-67
2021/06/01 06:32:39;;;;;;;1.75;1.40;;;;;;;;;;4987325;28;20033;-67
2021/06/01 06:35:05;;;;;;;2.95;1.50;;;;;;;;;;4990274;28;20030;-67
2021/06/01 06:37:31;;;;;;;2.70;1.65;;;;;;;;;;4989455;28;20097;-66
2021/06/01 06:39:56;;;;;;;2.15;1.60;;;;;;;;;;4989901;28;20041;-66
2021/06/01 06:42:22;;;;;;;2.13;1.40;;;;;;;;;;4989813;28;20097;-67
2021/06/01 06:44:50;;;;;;;1.50;1.33;;;;;;;;;;5003942;28;20038;-66
2021/06/01 06:49:42;;;;;;;2.35;1.60;;;;;;;;;;5002114;28;20454;-66
2021/06/01 06:52:11;;;;;;;3.25;1.60;;;;;;;;;;5004055;28;20039;-66
2021/06/01 06:54:36;;;;;;;1.92;1.50;;;;;;;;;;5002962;28;20339;-66
2021/06/01 06:57:03;;;;;;;2.38;1.50;;;;;;;;;;4986664;28;20145;-66
2021/06/01 06:59:28;;;;;;;1.92;1.55;;;;;;;;;;5005571;28;20057;-67
2021/06/01 07:01:53;;;;;;;2.72;1.70;;;;;;;;;;4987134;28;20601;-68
2021/06/01 07:04:19;;;;;;;2.03;1.40;;;;;;;;;;5002924;28;20041;-67
2021/06/01 07:06:47;;;;;;;1.88;1.60;;;;;;;;;;5004064;28;20069;-67
2021/06/01 07:09:13;;;;;;;2.60;1.50;;;;;;;;;;5004793;28;20504;-67
2021/06/01 07:11:39;;;;;;;2.78;1.40;;;;;;;;;;5004924;28;20038;-68
2021/06/01 07:14:16;;;;;;;4.15;1.58;;;;;;;;;;5005982;28;20042;-67
2021/06/01 07:16:42;;;;;;;2.00;1.40;;;;;;;;;;5003957;28;20030;-67
2021/06/01 07:19:07;;;;;;;2.75;1.50;;;;;;;;;;4987840;28;20483;-67
2021/06/01 07:21:33;;;;;;;2.28;1.52;;;;;;;;;;5005706;28;20073;-67
2021/06/01 07:23:58;;;;;;;2.03;1.50;;;;;;;;;;5004374;28;20410;-70
2021/06/01 07:26:24;;;;;;;1.60;1.50;;;;;;;;;;5002272;28;20034;-71
2021/06/01 07:28:50;;;;;;;3.35;1.70;;;;;;;;;;5002036;28;20049;-69
2021/06/01 07:31:16;;;;;;;3.00;1.58;;;;;;;;;;5003892;28;20037;-69
2021/06/01 07:33:42;;;;;;;2.90;1.40;;;;;;;;;;5004016;28;20038;-68
2021/06/01 07:36:08;;;;;;;1.75;1.35;;;;;;;;;;5002909;28;20039;-68
2021/06/01 07:38:35;;;;;;;2.20;1.15;;;;;;;;;;5002990;28;20105;-68
2021/06/01 07:41:03;;;;;;;1.70;1.40;;;;;;;;;;4987815;28;20109;-68
2021/06/01 07:43:30;;;;;;;1.40;1.30;;;;;;;;;;5006230;28;20029;-68
2021/06/01 07:45:56;;;;;;;1.40;1.20;;;;;;;;;;5006508;28;21118;-69
2021/06/01 07:48:21;;;;;;;1.60;1.05;;;;;;;;;;4988310;28;20039;-69
2021/06/01 07:50:47;;;;;;;1.48;1.20;;;;;;;;;;4991585;28;20031;-69
2021/06/01 07:53:12;;;;;;;2.78;1.13;;;;;;;;;;4989510;28;20034;-68
2021/06/01 07:55:38;;;;;;;1.20;1.10;;;;;;;;;;5007090;28;20462;-68
2021/06/01 07:58:03;;;;;;;1.80;1.27;;;;;;;;;;4972405;28;20704;-68
2021/06/01 08:00:29;;;;;;;1.70;1.23;;;;;;;;;;5009389;28;20532;-68
2021/06/01 08:02:54;;;;;;;1.80;1.20;;;;;;;;;;5006179;28;20030;-68
2021/06/01 08:05:20;;;;;;;2.63;1.00;;;;;;;;;;4990658;28;20035;-68
2021/06/01 08:07:47;;;;;;;1.20;1.10;;;;;;;;;;4987390;28;20134;-69
2021/06/01 08:10:15;;;;;;;1.33;1.10;;;;;;;;;;4990785;28;20472;-68
2021/06/01 08:12:41;;;;;;;1.27;1.00;;;;;;;;;;5004869;28;20037;-68
2021/06/01 08:15:07;;;;;;;2.03;1.20;;;;;;;;;;5008748;28;20414;-69
2021/06/01 08:17:33;;;;;;;1.05;0.95;;;;;;;;;;5005596;28;20038;-68
2021/06/01 08:20:08;;;;;;;1.48;1.10;;;;;;;;;;4989057;28;20447;-68
2021/06/01 08:22:34;;;;;;;1.73;1.23;;;;;;;;;;5005112;28;20138;-68
2021/06/01 08:24:59;;;;;;;1.65;1.20;;;;;;;;;;5006657;28;20501;-68
2021/06/01 08:27:25;;;;;;;1.70;1.17;;;;;;;;;;4989295;28;20471;-68
2021/06/01 08:29:50;;;;;;;1.55;1.10;;;;;;;;;;5005013;28;20049;-68
2021/06/01 08:32:16;;;;;;;2.38;1.40;;;;;;;;;;4977941;28;20036;-68
2021/06/01 08:34:41;;;;;;;1.95;1.20;;;;;;;;;;4991608;28;20042;-69
2021/06/01 08:37:07;;;;;;;2.17;1.10;;;;;;;;;;5009314;28;20030;-68
2021/06/01 08:39:33;;;;;;;1.02;0.93;;;;;;;;;;5006117;28;20112;-68
2021/06/01 08:41:58;;;;;;;1.30;1.10;;;;;;;;;;5009104;28;20410;-68
2021/06/01 08:44:24;;;;;;;1.42;1.10;;;;;;;;;;5006748;28;20472;-68
2021/06/01 08:46:51;;;;;;;1.25;0.77;;;;;;;;;;4993871;28;21015;-68
2021/06/01 08:49:17;;;;;;;0.98;0.90;;;;;;;;;;4992013;28;20105;-68
2021/06/01 08:51:43;;;;;;;3.10;1.20;;;;;;;;;;5006240;28;20066;-68
2021/06/01 08:54:09;;;;;;;1.55;1.00;;;;;;;;;;5004317;28;20046;-67
2021/06/01 08:56:34;;;;;;;1.38;1.00;;;;;;;;;;4988442;28;20043;-68
2021/06/01 08:59:00;;;;;;;1.20;1.00;;;;;;;;;;4990472;28;20093;-68
2021/06/01 09:01:25;;;;;;;2.25;1.13;;;;;;;;;;5006768;28;20562;-68
2021/06/01 09:03:53;;;;;;;1.85;1.10;;;;;;;;;;5008873;28;20041;-69
2021/06/01 09:06:23;;;;;;;1.52;0.90;;;;;;;;;;4992036;28;20046;-68
2021/06/01 09:14:24;;;;;;;0.80;0.75;;;;;;;;;;4993547;28;20041;-68
2021/06/01 09:22:43;;;;;;;1.85;1.20;;;;;;;;;;4991656;28;20058;-67
2021/06/01 09:25:11;;;;;;;1.45;1.20;;;;;;;;;;4989377;28;20138;-68
2021/06/01 09:27:49;;;;;;;1.40;1.10;;;;;;;;;;4993536;28;20046;-68
2021/06/01 09:30:42;;;;;;;1.73;1.10;;;;;;;;;;5007153;28;20593;-68
2021/06/01 09:33:14;;;;;;;1.17;1.08;;;;;;;;;;5006485;28;20043;-68
2021/06/01 09:35:39;;;;;;;;;;;;;;;;;;5006152;28;20042;-69
2021/06/01 09:38:05;;;;;;;1.00;0.90;;;;;;;;;;5005216;28;19918;-69
2021/06/01 09:40:30;;;;;;;1.00;0.90;;;;;;;;;;5007043;28;20050;-68
2021/06/01 09:42:56;;;;;;;1.52;1.00;;;;;;;;;;5002143;28;20027;-68
2021/06/01 09:45:22;;;;;;;1.65;1.10;;;;;;;;;;4989994;28;20030;-69
2021/06/01 09:47:58;;;;;;;1.48;1.10;;;;;;;;;;5003522;28;20039;-68
2021/06/01 09:52:56;;;;;;;1.02;0.90;;;;;;;;;;5004616;28;20030;-69
2021/06/01 09:55:30;;;;;;;1.33;1.00;;;;;;;;;;5006270;28;20113;-68
2021/06/01 09:57:56;;;;;;;1.05;0.95;;;;;;;;;;4989097;28;20224;-69
2021/06/01 10:00:28;;;;;;;1.40;1.00;;;;;;;;;;4987851;28;20880;-68
2021/06/01 10:02:58;;;;;;;1.27;1.10;;;;;;;;;;5003436;28;20054;-67
2021/06/01 10:05:34;;;;;;;1.10;0.90;;;;;;;;;;5006334;28;20034;-68
2021/06/01 10:08:15;;;;;;;1.63;0.85;;;;;;;;;;5001487;28;20030;-67
2021/06/01 10:10:48;;;;;;;1.10;0.90;;;;;;;;;;5002970;28;20092;-66
2021/06/01 10:13:13;;;;;;;1.48;1.00;;;;;;;;;;4989540;28;20045;-67
2021/06/01 10:15:39;;;;;;;1.50;0.90;;;;;;;;;;5003512;28;20045;-67
2021/06/01 10:18:06;;;;;;;1.25;1.00;;;;;;;;;;5008542;28;20042;-68
2021/06/01 10:20:32;;;;;;;1.35;0.90;;;;;;;;;;5004183;28;20161;-68
2021/06/01 10:22:58;;;;;;;1.48;1.00;;;;;;;;;;5003483;28;20306;-69
2021/06/01 10:25:25;;;;;;;1.35;0.93;;;;;;;;;;5006577;28;20906;-69
2021/06/01 10:27:52;;;;;;;2.05;0.90;;;;;;;;;;5009472;28;20064;-66
2021/06/01 10:30:18;;;;;;;1.20;0.90;;;;;;;;;;5000759;28;20160;-68
2021/06/01 10:32:49;;;;;;;1.20;1.00;;;;;;;;;;4985919;28;20538;-69
2021/06/01 10:35:17;;;;;;;1.73;1.00;;;;;;;;;;4976586;28;20214;-69
2021/06/01 10:48:55;;;;;;;1.83;0.93;;;;;;;;;;5005389;28;20486;-66
2021/06/01 10:51:28;;;;;;;0.90;0.70;;;;;;;;;;4976219;28;20037;-66
2021/06/01 10:53:54;;;;;;;2.03;1.00;;;;;;;;;;4993198;28;20066;-66
2021/06/01 10:56:19;;;;;;;1.95;0.90;;;;;;;;;;5006482;28;20030;-66
2021/06/01 10:58:47;;;;;;;0.65;0.65;;;;;;;;;;5005488;28;20037;-66
2021/06/01 11:04:18;;;;;;;0.85;0.80;;;;;;;;;;5006782;28;20042;-67
2021/06/01 11:07:01;;;;;;;1.15;0.80;;;;;;;;;;5006380;28;20037;-66
2021/06/01 11:09:32;;;;;;;0.70;0.70;;;;;;;;;;5006012;28;20034;-66
2021/06/01 11:11:59;;;;;;;1.40;0.93;;;;;;;;;;5006835;28;20442;-67
2021/06/01 11:14:31;;;;;;;1.30;0.80;;;;;;;;;;5006520;28;20114;-67
2021/06/01 11:16:58;;;;;;;2.08;0.70;;;;;;;;;;4991275;28;20048;-66
2021/06/01 11:19:30;;;;;;;0.60;0.60;;;;;;;;;;5008098;28;20030;-66
2021/06/01 11:22:00;;;;;;;1.30;0.85;;;;;;;;;;4990448;28;20045;-66
2021/06/01 11:35:19;;;;;;;1.80;1.02;;;;;;;;;;4995683;28;20055;-67
2021/06/01 11:37:59;;;;;;;1.00;0.80;;;;;;;;;;5010424;28;20318;-66
2021/06/01 11:43:13;;;;;;;1.00;0.90;;;;;;;;;;4991812;28;20132;-67
2021/06/01 11:51:21;;;;;;;1.03;0.90;;;;;;;;;;5008001;28;20117;-67
2021/06/01 11:54:02;;;;;;;1.90;0.98;;;;;;;;;;5009425;28;21018;-66
2021/06/01 11:56:59;;;;;;;0.77;0.70;;;;;;;;;;5006962;28;20034;-62
2021/06/01 12:05:12;;;;;;;1.65;0.90;;;;;;;;;;5006727;28;20439;-78
2021/06/01 12:18:42;;;;;;;1.10;0.90;;;;;;;;;;5009645;28;20038;-78
2021/06/01 12:21:20;;;;;;;0.80;0.80;;;;;;;;;;4990812;28;20046;-79
2021/06/01 12:23:53;;;;;;;1.17;0.73;;;;;;;;;;4991324;28;20038;-78
2021/06/01 12:32:09;;;;;;;1.15;0.80;;;;;;;;;;5008546;28;20040;-78
2021/06/01 12:43:05;;;;;;;0.90;0.73;;;;;;;;;;5008554;28;20062;-78
2021/06/01 13:05:41;;;;;;;1.52;0.80;;;;;;;;;;5005756;28;20554;-80
2021/06/01 13:19:25;;;;;;;1.40;0.90;;;;;;;;;;4998641;28;20459;-80
2021/06/01 13:21:58;;;;;;;2.08;0.90;;;;;;;;;;5005077;28;20046;-80
2021/06/01 13:30:29;;;;;;;1.02;0.88;;;;;;;;;;5008312;28;20119;-80
2021/06/01 13:38:36;;;;;;;1.77;0.85;;;;;;;;;;5006052;28;20703;-80
2021/06/01 13:46:53;;;;;;;0.70;0.70;;;;;;;;;;4997118;28;20038;-81
2021/06/01 13:49:26;;;;;;;0.90;0.77;;;;;;;;;;4992293;28;20038;-80
2021/06/01 13:57:16;;;;;;;0.82;0.80;;;;;;;;;;5007334;28;20068;-80
2021/06/01 14:21:23;;;;;;;1.00;0.80;;;;;;;;;;4997640;28;20042;-80
2021/06/01 14:37:44;;;;;;;1.48;0.90;;;;;;;;;;5006036;28;20070;-78
2021/06/01 15:28:43;;;;;;;1.60;1.10;;;;;;;;;;4990182;28;20037;-71
2021/06/01 15:48:08;;;;;;;1.83;0.85;;;;;;;;;;5005327;28;20042;-76
2021/06/01 15:53:43;;;;;;;0.65;0.60;;;;;;;;;;4989950;28;20093;-77
2021/06/01 16:21:20;;;;;;;1.92;0.90;;;;;;;;;;5008107;28;20034;-81
2021/06/01 16:32:13;;;;;;;1.90;1.05;;;;;;;;;;4995434;28;20057;-72
2021/06/01 17:04:46;;;;;;;1.00;0.90;;;;;;;;;;4992144;28;20038;-80
2021/06/01 17:07:51;;;;;;;1.00;0.88;;;;;;;;;;4988797;28;20042;-80
2021/06/01 17:12:54;;;;;;;1.55;1.08;;;;;;;;;;5005878;28;20042;-80
2021/06/01 17:15:20;;;;;;;1.17;0.90;;;;;;;;;;4990867;28;20042;-81
2021/06/01 17:17:49;;;;;;;1.45;1.20;;;;;;;;;;4988870;28;20034;-81
2021/06/01 17:31:23;;;;;;;2.35;1.02;;;;;;;;;;5003226;28;20049;-81
2021/06/01 17:36:29;;;;;;;1.38;1.05;;;;;;;;;;5006748;28;20000;-80
2021/06/01 17:38:55;;;;;;;1.00;0.90;;;;;;;;;;4975287;28;20474;-80
2021/06/01 17:41:22;;;;;;;1.67;1.08;;;;;;;;;;4990311;28;20045;-80
2021/06/01 17:43:47;;;;;;;1.45;1.02;;;;;;;;;;4988873;28;20053;-80
2021/06/01 17:46:13;;;;;;;2.42;0.90;;;;;;;;;;4991407;28;20037;-80
2021/06/01 17:48:54;;;;;;;2.05;1.10;;;;;;;;;;4989860;28;20464;-79
2021/06/01 17:51:19;;;;;;;1.25;1.10;;;;;;;;;;4990036;28;20089;-80
2021/06/01 17:53:47;;;;;;;1.20;0.93;;;;;;;;;;4986145;28;20439;-80
2021/06/01 17:56:18;;;;;;;1.13;1.00;;;;;;;;;;4991641;28;20088;-80
2021/06/01 17:58:44;;;;;;;1.33;0.98;;;;;;;;;;5006756;28;20042;-80
2021/06/01 18:01:09;;;;;;;1.77;0.93;;;;;;;;;;4987939;28;20038;-80
2021/06/01 18:03:42;;;;;;;1.55;1.10;;;;;;;;;;4972820;28;20339;-80
2021/06/01 18:06:08;;;;;;;1.25;0.90;;;;;;;;;;5006185;28;20559;-80
2021/06/01 18:08:41;;;;;;;1.27;0.82;;;;;;;;;;5006668;28;20491;-80
2021/06/01 19:00:25;;;;;;;1.15;1.02;;;;;;;;;;5006350;28;20037;-76
2021/06/01 19:24:46;;;;;;;1.50;1.10;;;;;;;;;;5004322;28;20546;-77
2021/06/01 19:50:16;;;;;;;3.15;1.58;;;;;;;;;;5008952;28;20164;-76
2021/06/01 19:52:42;;;;;;;2.08;1.40;;;;;;;;;;4976245;28;20069;-76
2021/06/01 19:55:08;;;;;;;3.13;1.90;;;;;;;;;;5009816;28;20043;-76
2021/06/01 19:57:34;;;;;;;2.47;1.65;;;;;;;;;;4992664;28;20030;-76
2021/06/01 20:00:00;;;;;;;2.47;1.67;;;;;;;;;;4992085;28;20709;-76
2021/06/01 20:02:29;;;;;;;2.63;1.60;;;;;;;;;;4977586;28;20050;-76
2021/06/01 20:04:56;;;;;;;2.03;1.60;;;;;;;;;;4995935;28;20379;-77
2021/06/01 20:07:22;;;;;;;3.42;2.00;;;;;;;;;;4976802;28;20125;-76
2021/06/01 20:09:48;;;;;;;3.25;2.10;;;;;;;;;;5005167;28;20023;-76
2021/06/01 20:12:14;;;;;;;2.55;1.85;;;;;;;;;;5009132;28;20038;-76
2021/06/01 20:14:39;;;;;;;3.38;2.13;;;;;;;;;;5008230;28;20045;-76
2021/06/01 20:17:12;;;;;;;4.03;2.17;;;;;;;;;;4988651;28;20473;-76
2021/06/01 20:19:38;;;;;;;2.45;1.95;;;;;;;;;;5004022;28;20061;-75
2021/06/01 20:22:04;;;;;;;3.40;2.17;;;;;;;;;;5007996;28;20056;-75
2021/06/01 20:24:29;;;;;;;2.58;1.65;;;;;;;;;;5007040;28;20035;-75
2021/06/01 20:26:55;;;;;;;2.50;1.90;;;;;;;;;;4989849;28;20428;-75
2021/06/01 20:29:23;;;;;;;3.05;2.10;;;;;;;;;;5006270;28;20049;-75
2021/06/01 20:33:06;;;;;;;2.80;1.80;;;;;;;;;;5004420;28;20046;-75
2021/06/01 20:34:41;;;;;;;2.58;1.90;;;;;;;;;;4978436;28;20484;-75
2021/06/01 20:37:06;;;;;;;2.85;1.88;;;;;;;;;;5007733;28;20070;-75
2021/06/01 20:39:38;;;;;;;2.30;1.80;;;;;;;;;;4976318;28;20108;-75
2021/06/01 20:42:04;;;;;;;3.42;2.25;;;;;;;;;;5004286;28;20864;-75
2021/06/01 20:44:30;;;;;;;3.45;1.88;;;;;;;;;;4992831;28;20039;-75
2021/06/01 20:46:55;;;;;;;2.42;1.70;;;;;;;;;;4990274;28;20462;-75
2021/06/01 20:49:21;;;;;;;2.40;2.03;;;;;;;;;;4985867;28;20042;-75
2021/06/01 20:51:46;;;;;;;3.40;2.00;;;;;;;;;;4991094;28;20034;-75
2021/06/01 20:54:12;;;;;;;2.03;1.80;;;;;;;;;;4989272;28;20080;-75
2021/06/01 20:56:38;;;;;;;2.45;1.90;;;;;;;;;;5004784;28;20034;-75
2021/06/01 20:59:03;;;;;;;4.32;2.10;;;;;;;;;;5009661;28;20026;-75
2021/06/01 21:01:30;;;;;;;1.90;1.60;;;;;;;;;;4992183;28;20054;-75
2021/06/01 21:03:56;;;;;;;2.65;1.83;;;;;;;;;;5005192;28;20038;-75
2021/06/01 21:06:23;;;;;;;3.42;2.08;;;;;;;;;;4972601;28;20089;-74
2021/06/01 21:08:48;;;;;;;2.17;1.70;;;;;;;;;;5004626;28;20128;-75
2021/06/01 21:11:14;;;;;;;2.47;1.90;;;;;;;;;;5007375;28;20509;-75
2021/06/01 21:13:39;;;;;;;2.67;2.03;;;;;;;;;;4988844;28;20030;-74
2021/06/01 21:16:05;;;;;;;2.22;1.60;;;;;;;;;;5007250;28;20518;-74
2021/06/01 21:18:30;;;;;;;3.05;1.92;;;;;;;;;;5007020;28;20463;-74
2021/06/01 21:20:56;;;;;;;2.42;1.85;;;;;;;;;;5005966;28;20488;-75
2021/06/01 21:23:21;;;;;;;2.70;1.88;;;;;;;;;;5005499;28;20125;-74
2021/06/01 21:25:47;;;;;;;2.70;2.00;;;;;;;;;;5004517;28;20049;-74
2021/06/01 21:28:12;;;;;;;3.00;1.90;;;;;;;;;;5005487;28;20053;-74
2021/06/01 21:30:39;;;;;;;4.55;2.10;;;;;;;;;;4989373;28;20046;-74
2021/06/01 21:33:08;;;;;;;2.47;1.70;;;;;;;;;;4990904;28;20049;-75
2021/06/01 21:35:40;;;;;;;3.03;2.00;;;;;;;;;;5004048;28;20044;-75
2021/06/01 21:38:07;;;;;;;4.40;2.30;;;;;;;;;;5001495;28;20046;-74
2021/06/01 21:40:35;;;;;;;2.67;1.88;;;;;;;;;;5003409;28;20045;-74
2021/06/01 21:43:00;;;;;;;2.85;1.98;;;;;;;;;;5005877;28;20544;-74
2021/06/01 21:45:28;;;;;;;2.10;1.80;;;;;;;;;;4991143;28;20041;-75
2021/06/01 21:47:55;;;;;;;3.33;2.13;;;;;;;;;;5006441;28;20450;-75